sensor_id;sensor_type;location;lat;lon;timestamp;P1;P2;P0
21358;PMS7003;13506;50.852;20.632;2022-07-29T00:01:39;9.40;9.40;4.60
21358;PMS7003;13506;50.852;20.632;2022-07-29T00:04:06;6.60;6.40;3.60
21358;PMS7003;13506;50.852;20.632;2022-07-29T00:06:35;7.00;6.20;3.80
21358;PMS7003;13506;50.852;20.632;2022-07-29T00:09:02;7.40;7.00;4.00
21358;PMS7003;13506;50.852;20.632;2022-07-29T00:11:30;8.40;7.20;4.00
21358;PMS7003;13506;50.852;20.632;2022-07-29T00:13:57;7.60;6.60;4.00
21358;PMS7003;13506;50.852;20.632;2022-07-29T00:16:25;6.00;6.00;3.80
21358;PMS7003;13506;50.852;20.632;2022-07-29T00:18:53;6.20;6.00;3.80
21358;PMS7003;13506;50.852;20.632;2022-07-29T00:21:21;7.00;6.20;4.00
21358;PMS7003;13506;50.852;20.632;2022-07-29T00:23:50;9.80;8.40;4.40
21358;PMS7003;13506;50.852;20.632;2022-07-29T00:26:17;9.40;9.40;5.00
21358;PMS7003;13506;50.852;20.632;2022-07-29T00:28:44;8.40;7.40;4.20
21358;PMS7003;13506;50.852;20.632;2022-07-29T00:31:12;8.60;8.20;5.00
21358;PMS7003;13506;50.852;20.632;2022-07-29T00:33:41;12.40;7.80;4.00
21358;PMS7003;13506;50.852;20.632;2022-07-29T00:36:08;8.00;7.80;4.00
21358;PMS7003;13506;50.852;20.632;2022-07-29T00:38:35;7.00;7.00;4.00
21358;PMS7003;13506;50.852;20.632;2022-07-29T00:41:04;8.60;7.40;4.40
21358;PMS7003;13506;50.852;20.632;2022-07-29T00:43:31;8.00;8.00;4.00
21358;PMS7003;13506;50.852;20.632;2022-07-29T00:46:00;9.00;7.00;4.00
21358;PMS7003;13506;50.852;20.632;2022-07-29T00:48:27;6.80;6.60;4.00
21358;PMS7003;13506;50.852;20.632;2022-07-29T00:50:55;7.40;6.60;4.00
21358;PMS7003;13506;50.852;20.632;2022-07-29T00:53:24;6.80;6.80;3.60
21358;PMS7003;13506;50.852;20.632;2022-07-29T00:55:53;7.60;7.60;4.00
21358;PMS7003;13506;50.852;20.632;2022-07-29T00:58:23;9.60;9.40;5.40
21358;PMS7003;13506;50.852;20.632;2022-07-29T01:00:53;6.40;6.40;3.80
21358;PMS7003;13506;50.852;20.632;2022-07-29T01:03:20;9.40;8.00;4.00
21358;PMS7003;13506;50.852;20.632;2022-07-29T01:05:48;10.40;9.20;4.20
21358;PMS7003;13506;50.852;20.632;2022-07-29T01:08:16;8.20;6.80;4.60
21358;PMS7003;13506;50.852;20.632;2022-07-29T01:10:45;8.20;7.00;4.00
21358;PMS7003;13506;50.852;20.632;2022-07-29T01:13:13;9.40;7.40;3.80
21358;PMS7003;13506;50.852;20.632;2022-07-29T01:15:45;8.60;6.40;3.40
21358;PMS7003;13506;50.852;20.632;2022-07-29T01:18:16;7.80;6.60;4.00
21358;PMS7003;13506;50.852;20.632;2022-07-29T01:20:55;7.20;7.20;4.00
21358;PMS7003;13506;50.852;20.632;2022-07-29T01:23:53;8.20;7.60;4.00
21358;PMS7003;13506;50.852;20.632;2022-07-29T01:26:58;7.00;7.00;4.00
21358;PMS7003;13506;50.852;20.632;2022-07-29T01:29:35;9.60;8.40;4.20
21358;PMS7003;13506;50.852;20.632;2022-07-29T01:32:08;7.80;7.80;4.60
21358;PMS7003;13506;50.852;20.632;2022-07-29T01:34:41;8.60;7.00;4.00
21358;PMS7003;13506;50.852;20.632;2022-07-29T01:37:20;7.60;7.00;3.60
21358;PMS7003;13506;50.852;20.632;2022-07-29T01:39:54;6.60;6.60;3.40
21358;PMS7003;13506;50.852;20.632;2022-07-29T01:42:27;6.00;6.00;3.60
21358;PMS7003;13506;50.852;20.632;2022-07-29T01:45:05;6.80;6.80;3.40
21358;PMS7003;13506;50.852;20.632;2022-07-29T01:47:38;6.20;6.20;3.60
21358;PMS7003;13506;50.852;20.632;2022-07-29T01:50:12;7.20;7.20;4.00
21358;PMS7003;13506;50.852;20.632;2022-07-29T01:52:45;7.75;7.75;4.00
21358;PMS7003;13506;50.852;20.632;2022-07-29T01:55:24;8.60;8.40;4.80
21358;PMS7003;13506;50.852;20.632;2022-07-29T01:57:54;10.80;9.00;4.00
21358;PMS7003;13506;50.852;20.632;2022-07-29T02:00:26;7.20;7.00;4.00
21358;PMS7003;13506;50.852;20.632;2022-07-29T02:02:57;9.00;7.40;4.00
21358;PMS7003;13506;50.852;20.632;2022-07-29T02:05:29;8.20;8.00;4.00
21358;PMS7003;13506;50.852;20.632;2022-07-29T02:07:59;8.40;8.00;3.60
21358;PMS7003;13506;50.852;20.632;2022-07-29T02:10:30;9.00;7.00;4.00
21358;PMS7003;13506;50.852;20.632;2022-07-29T02:13:00;7.20;7.00;4.00
21358;PMS7003;13506;50.852;20.632;2022-07-29T02:15:32;8.00;7.80;4.00
21358;PMS7003;13506;50.852;20.632;2022-07-29T02:18:01;7.80;7.80;4.80
21358;PMS7003;13506;50.852;20.632;2022-07-29T02:20:31;8.00;8.00;4.20
21358;PMS7003;13506;50.852;20.632;2022-07-29T02:23:00;8.60;8.00;4.20
21358;PMS7003;13506;50.852;20.632;2022-07-29T02:25:30;7.80;7.80;4.00
21358;PMS7003;13506;50.852;20.632;2022-07-29T02:27:58;9.60;8.80;5.20
21358;PMS7003;13506;50.852;20.632;2022-07-29T02:30:27;7.60;7.60;4.60
21358;PMS7003;13506;50.852;20.632;2022-07-29T02:32:58;8.00;7.00;3.80
21358;PMS7003;13506;50.852;20.632;2022-07-29T02:35:27;7.40;7.20;4.00
21358;PMS7003;13506;50.852;20.632;2022-07-29T02:37:55;7.60;7.40;4.20
21358;PMS7003;13506;50.852;20.632;2022-07-29T02:40:41;9.00;7.60;3.40
21358;PMS7003;13506;50.852;20.632;2022-07-29T02:43:10;9.60;9.00;5.00
21358;PMS7003;13506;50.852;20.632;2022-07-29T02:45:38;8.00;8.00;5.00
21358;PMS7003;13506;50.852;20.632;2022-07-29T02:48:10;8.80;7.80;4.00
21358;PMS7003;13506;50.852;20.632;2022-07-29T02:50:44;8.40;8.00;5.00
21358;PMS7003;13506;50.852;20.632;2022-07-29T02:53:22;10.60;8.60;5.00
21358;PMS7003;13506;50.852;20.632;2022-07-29T02:55:51;8.20;8.00;4.00
21358;PMS7003;13506;50.852;20.632;2022-07-29T02:58:24;8.60;8.60;4.00
21358;PMS7003;13506;50.852;20.632;2022-07-29T03:00:56;9.80;8.20;5.00
21358;PMS7003;13506;50.852;20.632;2022-07-29T03:03:31;11.60;8.00;5.00
21358;PMS7003;13506;50.852;20.632;2022-07-29T03:06:03;9.80;8.80;4.00
21358;PMS7003;13506;50.852;20.632;2022-07-29T03:08:33;8.20;8.20;4.80
21358;PMS7003;13506;50.852;20.632;2022-07-29T03:11:02;7.40;7.40;4.00
21358;PMS7003;13506;50.852;20.632;2022-07-29T03:13:30;8.80;8.20;5.60
21358;PMS7003;13506;50.852;20.632;2022-07-29T03:15:59;9.80;8.60;5.00
21358;PMS7003;13506;50.852;20.632;2022-07-29T03:18:26;8.60;8.60;5.60
21358;PMS7003;13506;50.852;20.632;2022-07-29T03:20:55;9.60;9.60;6.00
21358;PMS7003;13506;50.852;20.632;2022-07-29T03:23:24;9.80;8.60;4.60
21358;PMS7003;13506;50.852;20.632;2022-07-29T03:25:53;10.60;10.60;6.00
21358;PMS7003;13506;50.852;20.632;2022-07-29T03:28:21;13.60;12.40;8.20
21358;PMS7003;13506;50.852;20.632;2022-07-29T03:30:49;8.60;8.60;4.40
21358;PMS7003;13506;50.852;20.632;2022-07-29T03:33:17;10.60;8.80;5.20
21358;PMS7003;13506;50.852;20.632;2022-07-29T03:35:44;10.00;9.00;5.00
21358;PMS7003;13506;50.852;20.632;2022-07-29T03:38:14;9.80;9.00;5.80
21358;PMS7003;13506;50.852;20.632;2022-07-29T03:40:42;8.40;8.00;4.00
21358;PMS7003;13506;50.852;20.632;2022-07-29T03:43:16;9.80;9.40;5.00
21358;PMS7003;13506;50.852;20.632;2022-07-29T03:45:47;9.60;8.20;5.00
21358;PMS7003;13506;50.852;20.632;2022-07-29T03:48:19;8.80;7.80;4.00
21358;PMS7003;13506;50.852;20.632;2022-07-29T03:50:50;8.40;8.20;4.00
21358;PMS7003;13506;50.852;20.632;2022-07-29T03:53:19;9.40;8.20;4.00
21358;PMS7003;13506;50.852;20.632;2022-07-29T03:55:48;8.40;8.40;4.40
21358;PMS7003;13506;50.852;20.632;2022-07-29T03:58:21;9.00;8.00;4.80
21358;PMS7003;13506;50.852;20.632;2022-07-29T04:00:52;8.00;8.00;5.20
21358;PMS7003;13506;50.852;20.632;2022-07-29T04:03:21;7.00;6.20;4.00
21358;PMS7003;13506;50.852;20.632;2022-07-29T04:05:57;8.60;8.60;5.00
21358;PMS7003;13506;50.852;20.632;2022-07-29T04:08:28;10.40;8.80;5.20
21358;PMS7003;13506;50.852;20.632;2022-07-29T04:10:55;10.80;8.80;4.40
21358;PMS7003;13506;50.852;20.632;2022-07-29T04:13:23;9.20;8.80;4.80
21358;PMS7003;13506;50.852;20.632;2022-07-29T04:15:50;9.80;7.80;5.00
21358;PMS7003;13506;50.852;20.632;2022-07-29T04:18:18;8.00;8.00;5.00
21358;PMS7003;13506;50.852;20.632;2022-07-29T04:20:45;8.40;8.40;4.60
21358;PMS7003;13506;50.852;20.632;2022-07-29T04:23:13;12.00;9.00;5.60
21358;PMS7003;13506;50.852;20.632;2022-07-29T04:25:42;13.60;10.60;6.60
21358;PMS7003;13506;50.852;20.632;2022-07-29T04:28:10;9.20;9.20;5.00
21358;PMS7003;13506;50.852;20.632;2022-07-29T04:30:38;11.40;10.00;5.40
21358;PMS7003;13506;50.852;20.632;2022-07-29T04:33:06;15.60;14.00;9.00
21358;PMS7003;13506;50.852;20.632;2022-07-29T04:35:34;13.20;12.20;5.80
21358;PMS7003;13506;50.852;20.632;2022-07-29T04:38:05;11.00;10.00;6.00
21358;PMS7003;13506;50.852;20.632;2022-07-29T04:40:33;7.80;7.80;5.00
21358;PMS7003;13506;50.852;20.632;2022-07-29T04:43:02;8.00;8.00;4.40
21358;PMS7003;13506;50.852;20.632;2022-07-29T04:45:30;9.80;8.60;4.60
21358;PMS7003;13506;50.852;20.632;2022-07-29T04:47:57;12.80;9.00;6.00
21358;PMS7003;13506;50.852;20.632;2022-07-29T04:50:25;11.60;11.60;7.00
21358;PMS7003;13506;50.852;20.632;2022-07-29T04:52:53;11.00;9.00;4.60
21358;PMS7003;13506;50.852;20.632;2022-07-29T04:55:20;7.60;7.60;4.00
21358;PMS7003;13506;50.852;20.632;2022-07-29T04:57:48;8.40;7.60;4.80
21358;PMS7003;13506;50.852;20.632;2022-07-29T05:00:17;9.20;7.20;4.40
21358;PMS7003;13506;50.852;20.632;2022-07-29T05:02:44;8.40;7.60;4.80
21358;PMS7003;13506;50.852;20.632;2022-07-29T05:05:12;10.20;9.00;6.00
21358;PMS7003;13506;50.852;20.632;2022-07-29T05:07:40;12.60;10.80;6.00
21358;PMS7003;13506;50.852;20.632;2022-07-29T05:10:08;8.00;8.00;5.00
21358;PMS7003;13506;50.852;20.632;2022-07-29T05:12:36;11.60;9.20;5.20
21358;PMS7003;13506;50.852;20.632;2022-07-29T05:15:04;8.20;8.00;4.00
21358;PMS7003;13506;50.852;20.632;2022-07-29T05:17:34;8.00;7.60;4.40
21358;PMS7003;13506;50.852;20.632;2022-07-29T05:20:01;7.20;7.20;4.40
21358;PMS7003;13506;50.852;20.632;2022-07-29T05:22:30;9.50;7.75;3.25
21358;PMS7003;13506;50.852;20.632;2022-07-29T05:24:57;7.60;7.60;4.00
21358;PMS7003;13506;50.852;20.632;2022-07-29T05:27:24;9.20;7.00;3.20
21358;PMS7003;13506;50.852;20.632;2022-07-29T05:29:52;6.60;6.60;4.00
21358;PMS7003;13506;50.852;20.632;2022-07-29T05:32:20;7.20;7.20;4.00
21358;PMS7003;13506;50.852;20.632;2022-07-29T05:34:49;8.40;7.60;4.00
21358;PMS7003;13506;50.852;20.632;2022-07-29T05:37:17;8.20;8.20;4.80
21358;PMS7003;13506;50.852;20.632;2022-07-29T05:39:45;7.40;7.40;4.00
21358;PMS7003;13506;50.852;20.632;2022-07-29T05:42:13;7.60;7.00;3.60
21358;PMS7003;13506;50.852;20.632;2022-07-29T05:44:40;8.60;7.00;4.20
21358;PMS7003;13506;50.852;20.632;2022-07-29T05:47:08;8.40;6.00;4.00
21358;PMS7003;13506;50.852;20.632;2022-07-29T05:49:36;5.80;5.80;3.20
21358;PMS7003;13506;50.852;20.632;2022-07-29T05:52:05;6.00;6.00;4.00
21358;PMS7003;13506;50.852;20.632;2022-07-29T05:54:33;8.40;6.80;3.40
21358;PMS7003;13506;50.852;20.632;2022-07-29T05:57:01;7.80;7.20;4.00
21358;PMS7003;13506;50.852;20.632;2022-07-29T05:59:30;9.20;7.20;4.20
21358;PMS7003;13506;50.852;20.632;2022-07-29T06:02:01;10.80;7.60;3.60
21358;PMS7003;13506;50.852;20.632;2022-07-29T06:04:30;6.60;6.20;4.00
21358;PMS7003;13506;50.852;20.632;2022-07-29T06:06:58;6.80;6.80;3.40
21358;PMS7003;13506;50.852;20.632;2022-07-29T06:09:26;7.40;7.00;3.00
21358;PMS7003;13506;50.852;20.632;2022-07-29T06:11:54;8.00;6.80;4.00
21358;PMS7003;13506;50.852;20.632;2022-07-29T06:14:22;7.20;6.20;3.00
21358;PMS7003;13506;50.852;20.632;2022-07-29T06:16:52;7.00;6.40;3.00
21358;PMS7003;13506;50.852;20.632;2022-07-29T06:19:20;6.00;6.00;4.00
21358;PMS7003;13506;50.852;20.632;2022-07-29T06:21:48;6.80;6.00;3.00
21358;PMS7003;13506;50.852;20.632;2022-07-29T06:24:15;5.60;5.00;2.00
21358;PMS7003;13506;50.852;20.632;2022-07-29T06:26:44;6.00;6.00;3.20
21358;PMS7003;13506;50.852;20.632;2022-07-29T06:29:12;6.80;5.80;2.60
21358;PMS7003;13506;50.852;20.632;2022-07-29T06:31:40;5.60;4.80;2.00
21358;PMS7003;13506;50.852;20.632;2022-07-29T06:34:07;7.00;5.80;3.80
21358;PMS7003;13506;50.852;20.632;2022-07-29T06:36:35;7.80;7.00;4.20
21358;PMS7003;13506;50.852;20.632;2022-07-29T06:39:04;5.40;5.40;2.80
21358;PMS7003;13506;50.852;20.632;2022-07-29T06:41:32;7.00;7.00;3.80
21358;PMS7003;13506;50.852;20.632;2022-07-29T06:44:09;9.00;5.80;3.00
21358;PMS7003;13506;50.852;20.632;2022-07-29T06:46:37;6.00;6.00;3.40
21358;PMS7003;13506;50.852;20.632;2022-07-29T06:49:04;4.20;4.20;1.80
21358;PMS7003;13506;50.852;20.632;2022-07-29T06:51:32;6.25;6.00;3.00
21358;PMS7003;13506;50.852;20.632;2022-07-29T06:54:00;5.40;5.40;2.00
21358;PMS7003;13506;50.852;20.632;2022-07-29T06:56:30;4.40;4.40;2.00
21358;PMS7003;13506;50.852;20.632;2022-07-29T06:59:00;3.40;2.80;1.00
21358;PMS7003;13506;50.852;20.632;2022-07-29T07:01:29;3.80;3.80;2.40
21358;PMS7003;13506;50.852;20.632;2022-07-29T07:03:57;4.40;4.00;1.80
21358;PMS7003;13506;50.852;20.632;2022-07-29T07:06:25;6.80;3.80;1.40
21358;PMS7003;13506;50.852;20.632;2022-07-29T07:08:52;4.60;3.80;1.80
21358;PMS7003;13506;50.852;20.632;2022-07-29T07:11:20;5.40;5.20;2.20
21358;PMS7003;13506;50.852;20.632;2022-07-29T07:13:47;4.00;4.00;2.00
21358;PMS7003;13506;50.852;20.632;2022-07-29T07:16:15;5.60;5.60;2.40
21358;PMS7003;13506;50.852;20.632;2022-07-29T07:18:44;5.80;5.40;2.60
21358;PMS7003;13506;50.852;20.632;2022-07-29T07:21:12;5.40;5.20;3.00
21358;PMS7003;13506;50.852;20.632;2022-07-29T07:23:39;5.80;5.80;3.00
21358;PMS7003;13506;50.852;20.632;2022-07-29T07:26:07;4.20;4.20;2.00
21358;PMS7003;13506;50.852;20.632;2022-07-29T07:28:36;5.20;5.00;2.00
21358;PMS7003;13506;50.852;20.632;2022-07-29T07:31:03;5.40;5.40;3.00
21358;PMS7003;13506;50.852;20.632;2022-07-29T07:33:31;4.60;4.60;2.40
21358;PMS7003;13506;50.852;20.632;2022-07-29T07:36:00;6.00;5.80;2.80
21358;PMS7003;13506;50.852;20.632;2022-07-29T07:38:28;3.60;3.60;1.80
21358;PMS7003;13506;50.852;20.632;2022-07-29T07:40:55;4.00;3.60;1.40
21358;PMS7003;13506;50.852;20.632;2022-07-29T07:43:23;5.40;5.20;2.60
21358;PMS7003;13506;50.852;20.632;2022-07-29T07:45:51;6.00;6.00;2.00
21358;PMS7003;13506;50.852;20.632;2022-07-29T07:48:18;5.00;5.00;1.60
21358;PMS7003;13506;50.852;20.632;2022-07-29T07:50:46;5.40;5.00;2.60
21358;PMS7003;13506;50.852;20.632;2022-07-29T07:53:16;4.80;4.80;2.80
21358;PMS7003;13506;50.852;20.632;2022-07-29T07:55:43;4.00;3.60;2.00
21358;PMS7003;13506;50.852;20.632;2022-07-29T07:58:11;4.80;4.80;2.80
21358;PMS7003;13506;50.852;20.632;2022-07-29T08:00:38;4.00;4.00;1.40
21358;PMS7003;13506;50.852;20.632;2022-07-29T08:03:06;4.00;4.00;2.00
21358;PMS7003;13506;50.852;20.632;2022-07-29T08:05:34;6.00;6.00;2.60
21358;PMS7003;13506;50.852;20.632;2022-07-29T08:08:01;5.00;5.00;3.00
21358;PMS7003;13506;50.852;20.632;2022-07-29T08:10:30;5.80;4.60;2.00
21358;PMS7003;13506;50.852;20.632;2022-07-29T08:13:16;4.00;4.00;2.00
21358;PMS7003;13506;50.852;20.632;2022-07-29T08:15:44;6.25;6.00;3.00
21358;PMS7003;13506;50.852;20.632;2022-07-29T08:18:12;4.25;3.50;1.00
21358;PMS7003;13506;50.852;20.632;2022-07-29T08:20:40;4.25;4.25;2.75
21358;PMS7003;13506;50.852;20.632;2022-07-29T08:23:07;5.00;5.00;2.25
21358;PMS7003;13506;50.852;20.632;2022-07-29T08:25:38;6.00;5.25;2.00
21358;PMS7003;13506;50.852;20.632;2022-07-29T08:28:05;4.80;4.80;1.60
21358;PMS7003;13506;50.852;20.632;2022-07-29T08:30:33;4.00;4.00;2.00
21358;PMS7003;13506;50.852;20.632;2022-07-29T08:33:01;4.50;4.00;2.00
21358;PMS7003;13506;50.852;20.632;2022-07-29T08:35:29;7.00;5.00;2.00
21358;PMS7003;13506;50.852;20.632;2022-07-29T08:37:57;7.25;5.00;2.50
21358;PMS7003;13506;50.852;20.632;2022-07-29T08:40:25;8.75;6.00;2.00
21358;PMS7003;13506;50.852;20.632;2022-07-29T08:42:54;5.75;5.50;3.00
21358;PMS7003;13506;50.852;20.632;2022-07-29T08:45:21;5.50;5.00;2.00
21358;PMS7003;13506;50.852;20.632;2022-07-29T08:47:51;5.75;5.00;2.25
21358;PMS7003;13506;50.852;20.632;2022-07-29T08:50:20;8.75;6.00;3.00
21358;PMS7003;13506;50.852;20.632;2022-07-29T08:52:48;5.50;5.00;2.00
21358;PMS7003;13506;50.852;20.632;2022-07-29T08:55:17;5.00;5.00;2.00
21358;PMS7003;13506;50.852;20.632;2022-07-29T08:57:46;4.50;4.50;2.00
21358;PMS7003;13506;50.852;20.632;2022-07-29T09:00:15;8.00;5.50;3.00
21358;PMS7003;13506;50.852;20.632;2022-07-29T09:02:45;4.00;4.00;2.00
21358;PMS7003;13506;50.852;20.632;2022-07-29T09:05:18;6.50;5.25;3.00
21358;PMS7003;13506;50.852;20.632;2022-07-29T09:07:45;4.50;4.50;2.00
21358;PMS7003;13506;50.852;20.632;2022-07-29T09:10:13;8.50;5.50;2.00
21358;PMS7003;13506;50.852;20.632;2022-07-29T09:12:41;5.00;5.00;1.75
21358;PMS7003;13506;50.852;20.632;2022-07-29T09:15:09;5.00;5.00;2.50
21358;PMS7003;13506;50.852;20.632;2022-07-29T09:17:41;5.25;5.25;2.25
21358;PMS7003;13506;50.852;20.632;2022-07-29T09:20:11;8.50;6.00;3.00
21358;PMS7003;13506;50.852;20.632;2022-07-29T09:22:40;4.25;4.25;2.00
21358;PMS7003;13506;50.852;20.632;2022-07-29T09:25:10;6.25;6.25;3.00
21358;PMS7003;13506;50.852;20.632;2022-07-29T09:27:39;7.00;6.50;2.75
21358;PMS7003;13506;50.852;20.632;2022-07-29T09:30:07;5.75;4.25;3.00
21358;PMS7003;13506;50.852;20.632;2022-07-29T09:35:27;7.50;7.00;3.00
21358;PMS7003;13506;50.852;20.632;2022-07-29T09:37:55;7.25;5.75;3.50
21358;PMS7003;13506;50.852;20.632;2022-07-29T09:40:23;5.75;5.00;2.25
21358;PMS7003;13506;50.852;20.632;2022-07-29T09:42:53;8.00;6.00;3.50
21358;PMS7003;13506;50.852;20.632;2022-07-29T09:45:26;6.00;6.00;3.00
21358;PMS7003;13506;50.852;20.632;2022-07-29T09:47:57;6.25;6.00;3.00
21358;PMS7003;13506;50.852;20.632;2022-07-29T09:50:35;8.00;7.00;4.00
21358;PMS7003;13506;50.852;20.632;2022-07-29T09:53:05;5.00;5.00;2.75
21358;PMS7003;13506;50.852;20.632;2022-07-29T09:55:45;5.00;4.75;2.75
21358;PMS7003;13506;50.852;20.632;2022-07-29T09:58:15;5.75;5.75;3.00
21358;PMS7003;13506;50.852;20.632;2022-07-29T10:00:44;6.75;6.50;3.00
21358;PMS7003;13506;50.852;20.632;2022-07-29T10:03:15;8.75;6.00;3.00
21358;PMS7003;13506;50.852;20.632;2022-07-29T10:05:44;9.75;8.00;4.00
21358;PMS7003;13506;50.852;20.632;2022-07-29T10:08:12;6.75;6.25;3.75
21358;PMS7003;13506;50.852;20.632;2022-07-29T10:10:41;7.00;7.00;3.00
21358;PMS7003;13506;50.852;20.632;2022-07-29T10:13:10;9.00;7.75;3.50
21358;PMS7003;13506;50.852;20.632;2022-07-29T10:15:40;7.25;7.25;3.50
21358;PMS7003;13506;50.852;20.632;2022-07-29T10:18:12;6.00;6.00;3.50
21358;PMS7003;13506;50.852;20.632;2022-07-29T10:20:42;9.75;7.25;4.50
21358;PMS7003;13506;50.852;20.632;2022-07-29T10:23:11;6.75;6.50;3.00
21358;PMS7003;13506;50.852;20.632;2022-07-29T10:25:39;6.00;6.00;3.00
21358;PMS7003;13506;50.852;20.632;2022-07-29T10:28:07;7.50;7.50;3.75
21358;PMS7003;13506;50.852;20.632;2022-07-29T10:30:35;11.25;8.00;4.00
21358;PMS7003;13506;50.852;20.632;2022-07-29T10:33:13;6.00;6.00;4.00
21358;PMS7003;13506;50.852;20.632;2022-07-29T10:36:02;8.50;8.00;5.00
21358;PMS7003;13506;50.852;20.632;2022-07-29T10:38:43;7.00;7.00;4.00
21358;PMS7003;13506;50.852;20.632;2022-07-29T10:44:17;8.50;7.00;4.00
21358;PMS7003;13506;50.852;20.632;2022-07-29T10:46:48;8.50;7.00;3.75
21358;PMS7003;13506;50.852;20.632;2022-07-29T10:49:18;8.00;8.00;4.50
21358;PMS7003;13506;50.852;20.632;2022-07-29T10:51:54;6.25;6.25;3.25
21358;PMS7003;13506;50.852;20.632;2022-07-29T10:54:38;9.00;8.50;5.00
21358;PMS7003;13506;50.852;20.632;2022-07-29T10:57:12;9.00;8.50;5.00
21358;PMS7003;13506;50.852;20.632;2022-07-29T10:59:42;7.00;7.00;4.00
21358;PMS7003;13506;50.852;20.632;2022-07-29T11:05:15;11.75;11.75;6.50
21358;PMS7003;13506;50.852;20.632;2022-07-29T11:10:53;19.75;17.75;12.75
21358;PMS7003;13506;50.852;20.632;2022-07-29T11:14:06;9.75;7.75;5.75
21358;PMS7003;13506;50.852;20.632;2022-07-29T11:19:30;8.00;8.00;4.75
21358;PMS7003;13506;50.852;20.632;2022-07-29T11:22:00;8.75;8.00;4.75
21358;PMS7003;13506;50.852;20.632;2022-07-29T11:24:28;8.00;8.00;4.75
21358;PMS7003;13506;50.852;20.632;2022-07-29T11:27:10;10.75;10.00;5.00
21358;PMS7003;13506;50.852;20.632;2022-07-29T11:29:50;10.75;8.75;5.00
21358;PMS7003;13506;50.852;20.632;2022-07-29T11:32:23;9.25;9.25;6.00
21358;PMS7003;13506;50.852;20.632;2022-07-29T11:35:12;9.75;9.00;5.00
21358;PMS7003;13506;50.852;20.632;2022-07-29T11:37:44;7.00;7.00;4.00
21358;PMS7003;13506;50.852;20.632;2022-07-29T11:40:13;8.50;8.25;5.00
21358;PMS7003;13506;50.852;20.632;2022-07-29T11:42:45;8.25;8.25;6.00
21358;PMS7003;13506;50.852;20.632;2022-07-29T11:45:14;8.75;7.25;4.50
21358;PMS7003;13506;50.852;20.632;2022-07-29T11:47:50;8.25;8.00;5.00
21358;PMS7003;13506;50.852;20.632;2022-07-29T11:50:33;9.00;7.00;4.50
21358;PMS7003;13506;50.852;20.632;2022-07-29T11:53:09;9.75;8.25;4.75
21358;PMS7003;13506;50.852;20.632;2022-07-29T11:55:39;11.50;10.00;6.25
21358;PMS7003;13506;50.852;20.632;2022-07-29T11:58:07;9.25;9.25;4.25
21358;PMS7003;13506;50.852;20.632;2022-07-29T12:00:36;11.75;9.75;6.50
21358;PMS7003;13506;50.852;20.632;2022-07-29T12:03:06;9.00;8.75;5.00
21358;PMS7003;13506;50.852;20.632;2022-07-29T12:05:37;10.00;9.00;5.00
21358;PMS7003;13506;50.852;20.632;2022-07-29T12:08:13;9.50;8.00;4.75
21358;PMS7003;13506;50.852;20.632;2022-07-29T12:10:45;11.00;9.50;5.25
21358;PMS7003;13506;50.852;20.632;2022-07-29T12:13:15;7.75;7.75;5.00
21358;PMS7003;13506;50.852;20.632;2022-07-29T12:15:51;9.25;9.25;5.00
21358;PMS7003;13506;50.852;20.632;2022-07-29T12:18:20;9.00;9.00;5.25
21358;PMS7003;13506;50.852;20.632;2022-07-29T12:20:47;11.75;9.50;6.00
21358;PMS7003;13506;50.852;20.632;2022-07-29T12:23:24;8.25;8.00;4.25
21358;PMS7003;13506;50.852;20.632;2022-07-29T12:25:52;9.50;9.50;5.00
21358;PMS7003;13506;50.852;20.632;2022-07-29T12:28:19;9.00;9.00;5.75
21358;PMS7003;13506;50.852;20.632;2022-07-29T12:30:49;10.00;9.00;5.00
21358;PMS7003;13506;50.852;20.632;2022-07-29T12:33:18;9.75;8.75;5.00
21358;PMS7003;13506;50.852;20.632;2022-07-29T12:35:48;11.50;9.50;5.75
21358;PMS7003;13506;50.852;20.632;2022-07-29T12:38:20;9.00;8.25;5.00
21358;PMS7003;13506;50.852;20.632;2022-07-29T12:40:49;8.50;8.50;5.50
21358;PMS7003;13506;50.852;20.632;2022-07-29T12:43:20;11.25;9.50;6.00
21358;PMS7003;13506;50.852;20.632;2022-07-29T12:45:49;8.75;7.75;4.00
21358;PMS7003;13506;50.852;20.632;2022-07-29T12:48:31;9.25;9.00;5.00
21358;PMS7003;13506;50.852;20.632;2022-07-29T12:51:01;9.00;8.00;5.00
21358;PMS7003;13506;50.852;20.632;2022-07-29T12:53:31;8.00;8.00;5.00
21358;PMS7003;13506;50.852;20.632;2022-07-29T12:56:00;8.50;8.50;6.25
21358;PMS7003;13506;50.852;20.632;2022-07-29T12:58:30;11.25;11.25;7.75
21358;PMS7003;13506;50.852;20.632;2022-07-29T13:01:00;9.25;9.25;5.75
21358;PMS7003;13506;50.852;20.632;2022-07-29T13:03:44;8.00;8.00;4.50
21358;PMS7003;13506;50.852;20.632;2022-07-29T13:06:28;12.00;9.00;6.00
21358;PMS7003;13506;50.852;20.632;2022-07-29T13:09:09;8.50;8.50;5.50
21358;PMS7003;13506;50.852;20.632;2022-07-29T13:11:41;10.50;9.00;5.25
21358;PMS7003;13506;50.852;20.632;2022-07-29T13:14:12;12.00;12.00;5.50
21358;PMS7003;13506;50.852;20.632;2022-07-29T13:17:02;11.25;9.25;5.50
21358;PMS7003;13506;50.852;20.632;2022-07-29T13:19:33;10.25;9.00;6.00
21358;PMS7003;13506;50.852;20.632;2022-07-29T13:22:03;10.50;9.50;6.00
21358;PMS7003;13506;50.852;20.632;2022-07-29T13:24:31;11.00;11.00;6.00
21358;PMS7003;13506;50.852;20.632;2022-07-29T13:27:00;8.75;8.75;6.00
21358;PMS7003;13506;50.852;20.632;2022-07-29T13:29:28;10.75;9.25;6.00
21358;PMS7003;13506;50.852;20.632;2022-07-29T13:31:55;9.00;9.00;6.50
21358;PMS7003;13506;50.852;20.632;2022-07-29T13:34:23;9.00;9.00;5.75
21358;PMS7003;13506;50.852;20.632;2022-07-29T13:36:51;11.00;11.00;6.25
21358;PMS7003;13506;50.852;20.632;2022-07-29T13:39:18;13.25;12.00;7.25
21358;PMS7003;13506;50.852;20.632;2022-07-29T13:41:46;10.00;9.25;6.25
21358;PMS7003;13506;50.852;20.632;2022-07-29T13:44:15;11.50;10.75;6.50
21358;PMS7003;13506;50.852;20.632;2022-07-29T13:46:42;10.50;10.50;6.50
21358;PMS7003;13506;50.852;20.632;2022-07-29T13:49:10;13.00;11.25;7.00
21358;PMS7003;13506;50.852;20.632;2022-07-29T13:51:37;11.00;10.00;6.50
21358;PMS7003;13506;50.852;20.632;2022-07-29T13:54:05;12.00;11.00;7.25
21358;PMS7003;13506;50.852;20.632;2022-07-29T13:56:33;10.75;9.75;7.00
21358;PMS7003;13506;50.852;20.632;2022-07-29T13:59:01;10.75;10.25;6.25
21358;PMS7003;13506;50.852;20.632;2022-07-29T14:01:30;12.00;9.25;5.50
21358;PMS7003;13506;50.852;20.632;2022-07-29T14:03:57;9.00;9.00;5.00
21358;PMS7003;13506;50.852;20.632;2022-07-29T14:06:25;9.25;9.25;6.75
21358;PMS7003;13506;50.852;20.632;2022-07-29T14:08:53;10.00;9.75;6.00
21358;PMS7003;13506;50.852;20.632;2022-07-29T14:11:21;9.50;9.50;6.00
21358;PMS7003;13506;50.852;20.632;2022-07-29T14:13:48;11.00;10.00;5.75
21358;PMS7003;13506;50.852;20.632;2022-07-29T14:16:16;12.75;11.00;5.25
21358;PMS7003;13506;50.852;20.632;2022-07-29T14:18:45;11.25;10.25;5.25
21358;PMS7003;13506;50.852;20.632;2022-07-29T14:21:12;9.50;9.50;6.00
21358;PMS7003;13506;50.852;20.632;2022-07-29T14:23:40;10.25;9.50;6.75
21358;PMS7003;13506;50.852;20.632;2022-07-29T14:26:07;11.75;10.00;6.75
21358;PMS7003;13506;50.852;20.632;2022-07-29T14:28:35;12.75;9.75;6.25
21358;PMS7003;13506;50.852;20.632;2022-07-29T14:31:02;9.25;9.25;5.50
21358;PMS7003;13506;50.852;20.632;2022-07-29T14:33:31;11.25;11.00;7.00
21358;PMS7003;13506;50.852;20.632;2022-07-29T14:35:59;9.50;9.00;6.25
21358;PMS7003;13506;50.852;20.632;2022-07-29T14:38:27;10.00;10.00;6.75